Harleston, United Kingdom
Current Conditions -  °F | °C
As of 1:20 PM on Thursday 30 Oct 2014 (Local Time) from EGSH Reporting Station
Scattered Clouds Scattered Clouds  
Wind Chill: 64°   Ceiling: Unl
Heat Index: 64°   Visibility: 4mi
Dew Point: 59°   Wind: 8mph
Humidity: 83%   Direction: 200°SSW
Pressure: 30.06"   Gusts: NA
Location:  52.4°N, 1.3°E
Report Text: EGSH 301320Z 20007KT 170V250 6000 SCT013 18/15 Q1018
Loading
Personal Weather Stations






























Interactive Weather Map
Tropical Storm Tracking
New forecast layout! Learn more

10-Day Weather Forecast

Advertisements
Track Severe Weather on mobile